Myra Eckstein — WDF9473 — position and weather

sailwx.info

Track history (hours):
 
Tides and Currents Weather Stations Pressure Air Temp Water Temp Dewpoint Dewpoint Depression Visibility Wind Speed Wind Dir Waves Ship Positions

Myra Eckstein

Owner: Marquette Transportation Co. LLC, Paducah, KY. More information available from US FCC via Universal Licensing System and Coast Guard Vessel Documentation Center.

Last reported at 2016-Sep-30 02:33 UTC. Time now 2016-Oct-01 15:33 UTC.
Position N 29°57' W 090°14'.

Length 47 m; draft 3.5 m.

Type: Towing. MMSI: 367505510.

Date/timePositionNaut miles runAvg speedWind from/ knotsBaromVisibWave heightAir tempDewpointWater temp
2016-Sep-30 02:33N 29°57' W 090°14'1 0.3
2016-Sep-29 23:34N 29°58' W 090°15'12 1.2
2016-Sep-29 13:33N 30°02' W 090°28'  
2016-Sep-26 13:07N 31°58' W 091°11'10 6.3
2016-Sep-26 11:33N 32°08' W 091°06'14 4.8
2016-Sep-26 08:33N 32°18' W 090°55'0 0.0
2016-Sep-26 02:33N 32°18' W 090°55'0 0.0
2016-Sep-26 01:33N 32°18' W 090°55'0 0.0
2016-Sep-26 00:33N 32°18' W 090°55'0 0.0
2016-Sep-25 21:33N 32°18' W 090°55'0 0.0
2016-Sep-25 17:33N 32°18' W 090°55'0 0.0
2016-Sep-25 16:33N 32°18' W 090°55'0 0.2
2016-Sep-25 15:33N 32°18' W 090°55'6 6.4
2016-Sep-25 14:33N 32°23' W 090°60'18 9.1
2016-Sep-25 12:33N 32°40' W 091°07'7 6.0
2016-Sep-25 11:26N 32°47' W 091°10'  
Track history (hours):
 
Tides and Currents Weather Stations Pressure Air Temp Water Temp Dewpoint Dewpoint Depression Visibility Wind Speed Wind Dir Waves Ship Positions

Myra Eckstein

Owner: Marquette Transportation Co. LLC, Paducah, KY. More information available from US FCC via Universal Licensing System and Coast Guard Vessel Documentation Center.

Last reported at 2016-Sep-30 02:33 UTC. Time now 2016-Oct-01 15:33 UTC.
Position N 29°57' W 090°14'.

Length 47 m; draft 3.5 m.

Type: Towing. MMSI: 367505510.

Date/timePositionNaut miles runAvg speedWind from/ knotsBaromVisibWave heightAir tempDewpointWater temp
2016-Sep-30 02:33N 29°57' W 090°14'1 0.3
2016-Sep-29 23:34N 29°58' W 090°15'12 1.2
2016-Sep-29 13:33N 30°02' W 090°28'  
2016-Sep-26 13:07N 31°58' W 091°11'10 6.3
2016-Sep-26 11:33N 32°08' W 091°06'14 4.8
2016-Sep-26 08:33N 32°18' W 090°55'0 0.0
2016-Sep-26 02:33N 32°18' W 090°55'0 0.0
2016-Sep-26 01:33N 32°18' W 090°55'0 0.0
2016-Sep-26 00:33N 32°18' W 090°55'0 0.0
2016-Sep-25 21:33N 32°18' W 090°55'0 0.0
2016-Sep-25 17:33N 32°18' W 090°55'0 0.0
2016-Sep-25 16:33N 32°18' W 090°55'0 0.2
2016-Sep-25 15:33N 32°18' W 090°55'6 6.4
2016-Sep-25 14:33N 32°23' W 090°60'18 9.1
2016-Sep-25 12:33N 32°40' W 091°07'7 6.0
2016-Sep-25 11:26N 32°47' W 091°10'  

Dump ship's entire track history